Time;durP1;ratioP1;P1;durP2;ratioP2;P2;SDS_P1;SDS_P2;PMS_P1;PMS_P2;Temp;Humidity;BMP_temperature;BMP_pressure;BME280_temperature;BME280_humidity;BME280_pressure;Samples;Min_cycle;Max_cycle;Signal;HPM_P1;HPM_P2
2023/06/30 00:02:13;;;;;;;4.85;4.22;;;;;17.60;93913.00;;;;7393772;19;20172;-77
2023/06/30 00:04:50;;;;;;;8.65;4.28;;;;;17.70;93907.00;;;;7391838;19;20144;-76
2023/06/30 00:07:25;;;;;;;8.77;4.65;;;;;17.90;93904.00;;;;7393687;19;20228;-78
2023/06/30 00:09:53;;;;;;;10.30;4.30;;;;;17.90;93901.00;;;;7396970;19;20529;-75
2023/06/30 00:12:27;;;;;;;6.55;4.45;;;;;18.00;93896.00;;;;7393468;19;20653;-77
2023/06/30 00:14:55;;;;;;;7.60;4.65;;;;;18.00;93891.00;;;;7393663;19;20569;-77
2023/06/30 00:17:29;;;;;;;9.15;4.22;;;;;18.10;93892.00;;;;7394400;19;20144;-77
2023/06/30 00:19:59;;;;;;;4.85;4.32;;;;;18.10;93887.00;;;;7394354;19;20674;-78
2023/06/30 00:22:38;;;;;;;6.75;4.10;;;;;18.20;93877.00;;;;7393230;19;20196;-78
2023/06/30 00:25:12;;;;;;;11.15;4.55;;;;;18.20;93873.00;;;;7395080;19;20615;-78
2023/06/30 00:27:49;;;;;;;7.10;3.97;;;;;18.30;93870.00;;;;7394363;19;20272;-77
2023/06/30 00:30:16;;;;;;;9.38;4.40;;;;;18.40;93867.00;;;;7393860;19;20124;-78
2023/06/30 00:32:50;;;;;;;8.02;4.00;;;;;18.60;93863.00;;;;7393963;19;20168;-76
2023/06/30 00:35:18;;;;;;;7.70;4.10;;;;;18.60;93864.00;;;;7394068;19;20141;-77
2023/06/30 00:37:57;;;;;;;8.02;4.28;;;;;18.50;93859.00;;;;7396329;19;20649;-76
2023/06/30 00:40:31;;;;;;;8.65;4.00;;;;;18.40;93856.00;;;;7397856;19;20147;-76
2023/06/30 00:43:14;;;;;;;9.57;4.00;;;;;18.40;93857.00;;;;7401495;19;20612;-77
2023/06/30 00:45:44;;;;;;;6.53;4.15;;;;;18.30;93856.00;;;;7401461;19;20132;-78
2023/06/30 00:48:19;;;;;;;9.30;4.45;;;;;18.20;93859.00;;;;7401646;19;20491;-77
2023/06/30 00:50:47;;;;;;;4.70;3.95;;;;;18.30;93858.00;;;;7399695;19;20157;-77
2023/06/30 00:53:21;;;;;;;10.73;4.28;;;;;18.30;93842.00;;;;7399043;19;20151;-76
2023/06/30 00:55:50;;;;;;;5.72;4.15;;;;;18.20;93845.00;;;;7401257;19;20497;-76
2023/06/30 00:58:24;;;;;;;7.82;4.72;;;;;18.20;93839.00;;;;7400752;19;20140;-77
2023/06/30 01:00:59;;;;;;;7.70;4.43;;;;;18.20;93850.00;;;;7400522;19;20157;-78
2023/06/30 01:03:50;;;;;;;6.35;3.78;;;;;18.20;93846.00;;;;7384819;19;20196;-72
2023/06/30 01:06:32;;;;;;;10.77;3.97;;;;;18.10;93845.00;;;;7395624;19;20145;-72
2023/06/30 01:09:18;;;;;;;8.18;4.18;;;;;18.00;93846.00;;;;7399039;19;20136;-72
2023/06/30 01:11:50;;;;;;;8.80;4.40;;;;;18.10;93838.00;;;;7400054;19;20137;-71
2023/06/30 01:14:26;;;;;;;7.55;4.03;;;;;18.00;93841.00;;;;7397231;19;20525;-71
2023/06/30 01:17:06;;;;;;;6.78;3.70;;;;;17.90;93843.00;;;;7397320;19;20491;-70
2023/06/30 01:19:44;;;;;;;4.60;4.03;;;;;17.90;93841.00;;;;7398791;19;20148;-72
2023/06/30 01:22:44;;;;;;;5.65;3.80;;;;;17.80;93836.00;;;;7400205;19;20137;-72
2023/06/30 01:25:25;;;;;;;6.15;3.63;;;;;17.80;93840.00;;;;7397712;19;20675;-74
2023/06/30 01:28:00;;;;;;;6.10;3.83;;;;;17.90;93848.00;;;;7399762;19;20145;-72
2023/06/30 01:30:41;;;;;;;10.85;4.00;;;;;18.10;93831.00;;;;7399697;19;20136;-71
2023/06/30 01:33:16;;;;;;;6.75;3.83;;;;;18.20;93827.00;;;;7399568;19;20204;-71
2023/06/30 01:35:44;;;;;;;5.80;4.00;;;;;18.30;93827.00;;;;7398098;19;20145;-71
2023/06/30 01:38:18;;;;;;;5.82;3.72;;;;;18.40;93828.00;;;;7396648;19;20603;-71
2023/06/30 01:40:52;;;;;;;5.85;3.88;;;;;18.40;93825.00;;;;7398461;19;20153;-70
2023/06/30 01:43:35;;;;;;;5.10;4.55;;;;;18.40;93822.00;;;;7397370;19;20121;-71
2023/06/30 01:46:09;;;;;;;6.57;3.83;;;;;18.40;93807.00;;;;7399563;19;20595;-72
2023/06/30 01:48:44;;;;;;;9.50;4.75;;;;;18.30;93803.00;;;;7398755;19;20148;-72
2023/06/30 01:51:13;;;;;;;7.78;3.80;;;;;18.30;93817.00;;;;7397984;19;20144;-72
2023/06/30 01:53:50;;;;;;;5.05;3.50;;;;;18.10;93802.00;;;;7397273;19;20599;-71
2023/06/30 01:56:17;;;;;;;5.82;3.72;;;;;18.10;93804.00;;;;7398109;19;20149;-72
2023/06/30 01:58:51;;;;;;;6.78;3.92;;;;;18.20;93799.00;;;;7400239;19;20137;-71
2023/06/30 02:01:25;;;;;;;8.65;3.70;;;;;18.40;93806.00;;;;7398811;19;20200;-71
2023/06/30 02:04:06;;;;;;;7.32;3.63;;;;;18.20;93801.00;;;;7393878;19;20549;-71
2023/06/30 02:06:42;;;;;;;8.60;4.20;;;;;18.30;93801.00;;;;7394283;19;20663;-71
2023/06/30 02:09:11;;;;;;;6.30;3.80;;;;;18.20;93797.00;;;;7397567;19;20170;-70
2023/06/30 02:11:46;;;;;;;9.25;4.35;;;;;18.10;93802.00;;;;7396461;19;20232;-70
2023/06/30 02:14:19;;;;;;;6.47;3.85;;;;;18.00;93815.00;;;;7395831;19;20166;-72
2023/06/30 02:16:56;;;;;;;6.35;3.90;;;;;18.10;93802.00;;;;7399922;19;20129;-72
2023/06/30 02:19:26;;;;;;;7.53;4.03;;;;;18.10;93800.00;;;;7397308;19;20140;-71
2023/06/30 02:21:59;;;;;;;6.88;3.78;;;;;18.20;93804.00;;;;7395803;19;20144;-72
2023/06/30 02:24:27;;;;;;;6.97;3.80;;;;;18.30;93805.00;;;;7398504;19;20608;-72
2023/06/30 02:27:02;;;;;;;7.20;3.55;;;;;18.30;93809.00;;;;7396363;19;20166;-71
2023/06/30 02:29:31;;;;;;;5.78;3.63;;;;;18.20;93807.00;;;;7396361;19;20747;-72
2023/06/30 02:32:05;;;;;;;8.75;4.20;;;;;18.20;93806.00;;;;7396856;19;20132;-71
2023/06/30 02:34:32;;;;;;;4.70;3.72;;;;;18.00;93801.00;;;;7397913;19;20601;-71
2023/06/30 02:37:07;;;;;;;4.55;3.55;;;;;17.80;93803.00;;;;7395582;19;20214;-71
2023/06/30 02:39:41;;;;;;;8.35;3.80;;;;;18.00;93803.00;;;;7397476;19;20498;-73
2023/06/30 02:42:15;;;;;;;7.78;3.40;;;;;17.80;93798.00;;;;7396495;19;20619;-72
2023/06/30 02:44:49;;;;;;;6.90;3.70;;;;;17.90;93805.00;;;;7395355;19;20137;-71
2023/06/30 02:47:23;;;;;;;7.07;3.90;;;;;18.00;93798.00;;;;7395743;19;20632;-72
2023/06/30 02:49:51;;;;;;;6.25;3.47;;;;;18.00;93794.00;;;;7396472;19;20149;-72
2023/06/30 02:52:25;;;;;;;4.28;3.63;;;;;18.00;93801.00;;;;7395257;19;20150;-71
2023/06/30 02:54:54;;;;;;;5.35;3.67;;;;;18.00;93799.00;;;;7392059;19;20655;-71
2023/06/30 02:57:29;;;;;;;6.22;3.85;;;;;18.10;93793.00;;;;7396602;19;20144;-72
2023/06/30 02:59:56;;;;;;;6.30;3.65;;;;;18.30;93781.00;;;;7395971;19;20141;-72
2023/06/30 03:02:34;;;;;;;7.32;4.18;;;;;18.30;93786.00;;;;7392555;19;20188;-71
2023/06/30 03:05:15;;;;;;;7.05;3.40;;;;;18.40;93791.00;;;;7393541;19;20244;-72
2023/06/30 03:07:50;;;;;;;4.93;3.45;;;;;18.40;93790.00;;;;7397373;19;20137;-71
2023/06/30 03:10:17;;;;;;;6.20;3.58;;;;;18.40;93792.00;;;;7396106;19;20141;-71
2023/06/30 03:12:52;;;;;;;5.93;3.58;;;;;18.60;93782.00;;;;7394321;19;20140;-72
2023/06/30 03:15:20;;;;;;;6.38;3.42;;;;;18.70;93777.00;;;;7395808;19;20149;-71
2023/06/30 03:17:56;;;;;;;6.00;3.15;;;;;18.70;93774.00;;;;7396214;19;20133;-72
2023/06/30 03:20:24;;;;;;;4.85;3.40;;;;;18.60;93774.00;;;;7396081;19;20207;-74
2023/06/30 03:23:01;;;;;;;9.73;4.30;;;;;18.70;93779.00;;;;7396821;19;20136;-74
2023/06/30 03:25:28;;;;;;;5.03;3.60;;;;;18.80;93776.00;;;;7394970;19;20585;-72
2023/06/30 03:28:07;;;;;;;9.38;3.78;;;;;18.80;93777.00;;;;7394847;19;20140;-71
2023/06/30 03:30:35;;;;;;;6.30;3.92;;;;;18.90;93780.00;;;;7396381;19;20140;-73
2023/06/30 03:33:10;;;;;;;5.75;3.58;;;;;18.90;93774.00;;;;7394967;19;20525;-71
2023/06/30 03:35:40;;;;;;;5.50;3.95;;;;;19.10;93775.00;;;;7394526;19;20601;-71
2023/06/30 03:38:14;;;;;;;5.82;4.32;;;;;19.00;93775.00;;;;7393622;19;20152;-72
2023/06/30 03:40:53;;;;;;;6.75;3.83;;;;;19.10;93773.00;;;;7395474;19;20175;-71
2023/06/30 03:43:23;;;;;;;10.32;4.43;;;;;19.00;93771.00;;;;7395599;19;20141;-71
2023/06/30 03:46:06;;;;;;;5.88;4.07;;;;;18.80;93768.00;;;;7392690;19;20149;-72
2023/06/30 03:48:34;;;;;;;7.88;4.50;;;;;18.80;93767.00;;;;7393973;19;20148;-72
2023/06/30 03:51:09;;;;;;;7.07;4.22;;;;;18.70;93768.00;;;;7394945;19;20174;-72
2023/06/30 03:53:36;;;;;;;7.70;3.80;;;;;18.60;93775.00;;;;7393465;19;20162;-72
2023/06/30 03:56:11;;;;;;;7.25;4.47;;;;;18.60;93767.00;;;;7394405;19;20174;-73
2023/06/30 03:58:41;;;;;;;9.68;4.55;;;;;18.70;93773.00;;;;7393805;19;20160;-71
2023/06/30 04:01:14;;;;;;;7.75;5.13;;;;;18.90;93774.00;;;;7393913;19;20147;-72
2023/06/30 04:03:55;;;;;;;8.63;4.82;;;;;18.90;93769.00;;;;7389766;19;20203;-72
2023/06/30 04:06:33;;;;;;;9.38;5.03;;;;;18.90;93760.00;;;;7388004;19;20566;-75
2023/06/30 04:09:00;;;;;;;9.73;5.22;;;;;18.90;93771.00;;;;7395146;19;20502;-71
2023/06/30 04:11:41;;;;;;;5.93;4.82;;;;;18.90;93777.00;;;;7392799;19;20150;-71
2023/06/30 04:14:09;;;;;;;8.15;4.40;;;;;18.90;93778.00;;;;7393307;19;20194;-73
2023/06/30 04:16:44;;;;;;;7.80;4.45;;;;;18.80;93781.00;;;;7402953;19;20156;-71
2023/06/30 04:19:17;;;;;;;8.60;4.47;;;;;18.60;93781.00;;;;7396160;19;20154;-74
2023/06/30 04:21:47;;;;;;;6.95;4.25;;;;;18.40;93784.00;;;;7400817;19;20137;-71
2023/06/30 04:24:26;;;;;;;6.53;4.80;;;;;18.30;93778.00;;;;7401379;19;20162;-72
2023/06/30 04:27:00;;;;;;;6.68;4.60;;;;;18.20;93775.00;;;;7397155;19;20144;-72
2023/06/30 04:29:37;;;;;;;7.78;4.93;;;;;18.20;93783.00;;;;7399125;19;20152;-74
2023/06/30 04:32:09;;;;;;;7.60;5.28;;;;;18.30;93783.00;;;;7397345;19;20178;-73
2023/06/30 04:34:44;;;;;;;7.50;4.55;;;;;18.20;93780.00;;;;7400180;19;20147;-74
2023/06/30 04:37:13;;;;;;;10.27;4.63;;;;;18.30;93779.00;;;;7400000;19;20174;-74
2023/06/30 04:39:48;;;;;;;5.90;4.75;;;;;18.30;93786.00;;;;7400889;19;20124;-74
2023/06/30 04:42:18;;;;;;;6.50;4.90;;;;;18.30;93773.00;;;;7402426;19;20144;-73
2023/06/30 04:44:51;;;;;;;6.88;5.07;;;;;18.30;93775.00;;;;7400765;19;20133;-74
2023/06/30 04:47:22;;;;;;;8.68;5.28;;;;;18.40;93784.00;;;;7398596;19;20140;-74
2023/06/30 04:49:55;;;;;;;8.90;5.53;;;;;18.40;93786.00;;;;7402143;19;20147;-74
2023/06/30 04:52:30;;;;;;;6.32;5.07;;;;;18.30;93782.00;;;;7399923;19;20147;-74
2023/06/30 04:55:05;;;;;;;7.53;5.40;;;;;18.40;93783.00;;;;7399580;19;20174;-74
2023/06/30 04:57:33;;;;;;;8.90;5.07;;;;;18.50;93785.00;;;;7382045;19;20453;-73
2023/06/30 05:00:08;;;;;;;6.70;4.80;;;;;18.50;93777.00;;;;7378821;19;20602;-74
2023/06/30 05:02:57;;;;;;;9.80;6.00;;;;;18.50;93775.00;;;;7384950;19;20580;-73
2023/06/30 05:05:32;;;;;;;11.73;5.57;;;;;18.60;93773.00;;;;7387362;19;20589;-74
2023/06/30 05:08:06;;;;;;;7.28;5.15;;;;;18.80;93770.00;;;;7385054;19;20219;-74
2023/06/30 05:10:40;;;;;;;9.90;5.68;;;;;19.00;93777.00;;;;7387228;19;21579;-74
2023/06/30 05:13:11;;;;;;;7.68;5.30;;;;;18.90;93775.00;;;;7386822;19;20137;-74
2023/06/30 05:15:47;;;;;;;8.18;5.30;;;;;18.90;93771.00;;;;7385850;19;20221;-74
2023/06/30 05:18:15;;;;;;;7.85;6.07;;;;;19.00;93766.00;;;;7386101;19;20156;-74
2023/06/30 05:20:50;;;;;;;8.20;5.57;;;;;18.90;93760.00;;;;7387002;19;20235;-75
2023/06/30 05:23:21;;;;;;;11.85;6.47;;;;;19.00;93765.00;;;;7387778;19;20491;-74
2023/06/30 05:25:58;;;;;;;10.40;6.65;;;;;19.10;93758.00;;;;7384913;19;20538;-74
2023/06/30 05:28:35;;;;;;;10.27;6.38;;;;;19.30;93764.00;;;;7385448;19;20152;-74
2023/06/30 05:31:22;;;;;;;12.60;7.13;;;;;19.30;93773.00;;;;7385454;19;20650;-74
2023/06/30 05:33:50;;;;;;;10.02;7.20;;;;;19.30;93773.00;;;;7386408;19;20152;-74
2023/06/30 05:36:25;;;;;;;10.48;6.63;;;;;19.20;93783.00;;;;7385893;19;20156;-74
2023/06/30 05:39:02;;;;;;;9.57;7.00;;;;;19.10;93784.00;;;;7385713;19;20163;-75
2023/06/30 05:41:31;;;;;;;13.35;7.20;;;;;19.20;93776.00;;;;7386549;19;20484;-75
2023/06/30 05:44:13;;;;;;;9.13;6.85;;;;;19.20;93778.00;;;;7384804;19;20158;-75
2023/06/30 05:46:52;;;;;;;10.63;7.53;;;;;19.20;93794.00;;;;7383208;19;20635;-75
2023/06/30 05:49:27;;;;;;;8.75;6.95;;;;;19.20;93787.00;;;;7385203;19;20308;-74
2023/06/30 05:51:55;;;;;;;11.70;7.80;;;;;19.20;93791.00;;;;7384919;19;20196;-74
2023/06/30 05:54:34;;;;;;;9.13;6.45;;;;;19.00;93793.00;;;;7383199;19;20172;-75
2023/06/30 05:57:07;;;;;;;9.10;6.63;;;;;18.90;93791.00;;;;7386117;19;20136;-74
2023/06/30 05:59:47;;;;;;;7.93;5.72;;;;;18.90;93795.00;;;;7386354;19;20133;-75
2023/06/30 06:02:18;;;;;;;7.65;5.40;;;;;18.70;93797.00;;;;7382834;19;20180;-76
2023/06/30 06:05:00;;;;;;;7.95;6.47;;;;;18.60;93798.00;;;;7384089;19;20178;-75
2023/06/30 06:07:29;;;;;;;13.15;9.05;;;;;18.40;93803.00;;;;7385237;19;20710;-74
2023/06/30 06:10:04;;;;;;;19.67;10.63;;;;;18.30;93802.00;;;;7379179;19;20596;-75
2023/06/30 06:12:32;;;;;;;12.18;9.63;;;;;18.30;93801.00;;;;7384585;19;20735;-75
2023/06/30 06:15:07;;;;;;;18.98;10.75;;;;;18.20;93807.00;;;;7384487;19;20620;-75
2023/06/30 06:17:38;;;;;;;17.50;11.15;;;;;18.00;93813.00;;;;7386571;19;20136;-75
2023/06/30 06:20:13;;;;;;;17.02;10.63;;;;;17.90;93819.00;;;;7384362;19;20610;-74
2023/06/30 06:22:43;;;;;;;17.70;10.57;;;;;17.80;93829.00;;;;7384848;19;20152;-74
2023/06/30 06:25:19;;;;;;;13.65;9.85;;;;;17.80;93831.00;;;;7384466;19;20132;-74
2023/06/30 06:27:53;;;;;;;12.88;8.68;;;;;17.80;93838.00;;;;7384303;19;20139;-74
2023/06/30 06:30:26;;;;;;;9.52;6.88;;;;;17.70;93829.00;;;;7384363;19;20219;-74
2023/06/30 06:33:03;;;;;;;10.52;7.03;;;;;17.60;93839.00;;;;7386373;19;20129;-74
2023/06/30 06:35:33;;;;;;;9.93;7.32;;;;;17.50;93844.00;;;;7382992;19;20489;-75
2023/06/30 06:38:10;;;;;;;14.32;8.45;;;;;17.40;93837.00;;;;7380127;19;20193;-75
2023/06/30 06:40:38;;;;;;;12.35;8.80;;;;;17.20;93844.00;;;;7384888;19;20173;-76
2023/06/30 06:43:13;;;;;;;12.98;8.38;;;;;17.10;93843.00;;;;7383065;19;20155;-75
2023/06/30 06:45:47;;;;;;;10.43;8.32;;;;;17.10;93838.00;;;;7382817;19;20148;-75
2023/06/30 06:48:26;;;;;;;13.75;9.20;;;;;17.10;93837.00;;;;7383641;19;20477;-78
2023/06/30 06:51:03;;;;;;;10.38;9.07;;;;;17.00;93843.00;;;;7383821;19;20167;-76
2023/06/30 06:53:35;;;;;;;14.18;11.10;;;;;17.00;93843.00;;;;7384035;19;20145;-78
2023/06/30 06:56:09;;;;;;;19.42;12.05;;;;;16.90;93845.00;;;;7383148;19;20212;-76
2023/06/30 06:58:38;;;;;;;15.25;11.55;;;;;16.80;93855.00;;;;7384392;19;20495;-79
2023/06/30 07:01:12;;;;;;;17.60;11.68;;;;;16.70;93852.00;;;;7383900;19;20610;-78
2023/06/30 07:03:52;;;;;;;15.23;11.88;;;;;16.80;93854.00;;;;7383034;19;20183;-78
2023/06/30 07:06:29;;;;;;;18.73;13.30;;;;;16.80;93864.00;;;;7380647;19;20243;-78
2023/06/30 07:09:03;;;;;;;17.33;13.20;;;;;16.70;93873.00;;;;7384330;19;20155;-78
2023/06/30 07:11:37;;;;;;;20.92;13.25;;;;;16.70;93877.00;;;;7383340;19;20148;-79
2023/06/30 07:14:11;;;;;;;19.95;14.60;;;;;16.60;93876.00;;;;7384255;19;20124;-78
2023/06/30 07:16:39;;;;;;;19.27;14.32;;;;;16.50;93880.00;;;;7383074;19;20467;-78
2023/06/30 07:19:14;;;;;;;21.10;15.90;;;;;16.60;93886.00;;;;7384264;19;20128;-77
2023/06/30 07:21:44;;;;;;;22.20;15.65;;;;;16.50;93874.00;;;;7381380;19;20596;-76
2023/06/30 07:24:18;;;;;;;20.27;15.23;;;;;16.40;93889.00;;;;7382404;19;20152;-76
2023/06/30 07:26:45;;;;;;;19.58;14.68;;;;;16.40;93891.00;;;;7382104;19;20686;-77
2023/06/30 07:29:20;;;;;;;24.15;15.15;;;;;16.40;93892.00;;;;7383126;19;20145;-76
2023/06/30 07:31:54;;;;;;;22.60;15.45;;;;;16.30;93906.00;;;;7382524;19;20152;-79
2023/06/30 07:34:30;;;;;;;23.10;15.18;;;;;16.10;93897.00;;;;7384348;19;20479;-80
2023/06/30 07:37:07;;;;;;;20.58;14.75;;;;;16.00;93906.00;;;;7387232;19;20214;-78
2023/06/30 07:39:42;;;;;;;30.58;15.30;;;;;15.80;93905.00;;;;7382982;19;20626;-81
2023/06/30 07:42:16;;;;;;;34.30;15.77;;;;;15.70;93904.00;;;;7388719;19;20144;-80
2023/06/30 07:44:52;;;;;;;98.22;17.63;;;;;15.70;93909.00;;;;7389112;19;20145;-79
2023/06/30 07:47:20;;;;;;;36.65;14.70;;;;;15.50;93910.00;;;;7387317;19;20613;-81
2023/06/30 07:49:56;;;;;;;31.95;15.45;;;;;15.40;93912.00;;;;7385950;19;20617;-81
2023/06/30 07:52:24;;;;;;;23.27;16.42;;;;;15.50;93903.00;;;;7387359;19;20145;-84
2023/06/30 07:54:58;;;;;;;22.83;15.45;;;;;15.50;93902.00;;;;7389132;19;20195;-87
2023/06/30 07:57:32;;;;;;;19.73;12.90;;;;;15.40;93906.00;;;;7389450;19;20163;-90
2023/06/30 08:00:00;;;;;;;28.98;12.90;;;;;15.50;93907.00;;;;7388704;19;20146;-89
2023/06/30 08:02:48;;;;;;;24.45;12.68;;;;;15.60;93907.00;;;;7385618;19;20543;-88
2023/06/30 08:05:16;;;;;;;17.25;11.88;;;;;15.60;93904.00;;;;7389433;19;20140;-82
2023/06/30 08:07:53;;;;;;;14.90;10.55;;;;;15.60;93902.00;;;;7393585;19;20140;-88
2023/06/30 08:10:21;;;;;;;19.33;10.13;;;;;15.60;93889.00;;;;7397295;19;20148;-83
2023/06/30 08:12:56;;;;;;;15.15;10.85;;;;;15.70;93891.00;;;;7391604;19;20152;-91
2023/06/30 08:15:24;;;;;;;13.15;9.73;;;;;15.70;93891.00;;;;7391100;19;20627;-84
2023/06/30 08:17:59;;;;;;;14.63;9.30;;;;;15.80;93893.00;;;;7391558;19;20163;-85
2023/06/30 08:20:37;;;;;;;11.63;9.82;;;;;15.80;93900.00;;;;7388534;19;20145;-85
2023/06/30 08:23:15;;;;;;;10.35;8.18;;;;;15.80;93897.00;;;;7389032;19;20566;-87
2023/06/30 08:25:49;;;;;;;16.40;9.60;;;;;15.90;93895.00;;;;7385849;19;20133;-84
2023/06/30 08:28:24;;;;;;;12.95;8.70;;;;;16.00;93887.00;;;;7387819;19;20211;-88
2023/06/30 08:30:58;;;;;;;11.13;7.28;;;;;16.00;93893.00;;;;7388064;19;20476;-87
2023/06/30 08:33:29;;;;;;;13.98;8.30;;;;;16.10;93889.00;;;;7385900;19;23362;-89
2023/06/30 08:36:01;;;;;;;10.95;8.65;;;;;16.10;93891.00;;;;7387199;19;20153;-89
2023/06/30 08:38:36;;;;;;;12.48;8.93;;;;;16.20;93894.00;;;;7388382;19;20149;-89
2023/06/30 08:41:11;;;;;;;12.40;8.73;;;;;16.20;93892.00;;;;7387884;19;20170;-90
2023/06/30 08:43:46;;;;;;;13.32;9.23;;;;;16.40;93889.00;;;;7390944;19;20169;-89
2023/06/30 08:46:17;;;;;;;14.88;10.88;;;;;16.30;93883.00;;;;7389943;19;20619;-91
2023/06/30 08:48:52;;;;;;;15.00;11.55;;;;;16.40;93883.00;;;;7392036;19;20627;-93
2023/06/30 08:51:21;;;;;;;18.55;11.30;;;;;16.40;93878.00;;;;7389793;19;20641;-92
2023/06/30 08:53:58;;;;;;;16.60;11.90;;;;;16.40;93877.00;;;;7389310;19;20148;-89
2023/06/30 08:56:29;;;;;;;19.70;13.05;;;;;16.40;93875.00;;;;7393474;19;20680;-89
2023/06/30 08:59:03;;;;;;;19.85;14.63;;;;;16.50;93872.00;;;;7391926;19;20260;-85
2023/06/30 09:01:39;;;;;;;18.88;13.48;;;;;16.40;93872.00;;;;7395088;19;20148;-85
2023/06/30 09:04:24;;;;;;;21.85;14.23;;;;;16.30;93867.00;;;;7392701;19;20726;-87
2023/06/30 09:06:53;;;;;;;22.92;14.02;;;;;16.20;93877.00;;;;7396569;19;20640;-87
2023/06/30 09:09:42;;;;;;;19.58;14.55;;;;;16.30;93869.00;;;;7395478;19;20165;-85
2023/06/30 09:12:17;;;;;;;23.38;14.63;;;;;16.20;93871.00;;;;7393086;19;20160;-87
2023/06/30 09:14:53;;;;;;;27.45;15.52;;;;;16.20;93875.00;;;;7392113;19;20207;-85
2023/06/30 09:17:21;;;;;;;23.23;15.48;;;;;16.30;93874.00;;;;7391422;19;20160;-85
2023/06/30 09:19:55;;;;;;;22.00;15.85;;;;;16.40;93862.00;;;;7391981;19;20156;-85
2023/06/30 09:22:29;;;;;;;21.80;16.23;;;;;16.50;93875.00;;;;7391488;19;20136;-84
2023/06/30 09:25:28;;;;;;;22.55;16.67;;;;;16.40;93864.00;;;;7392732;19;20209;-83
2023/06/30 09:27:57;;;;;;;22.27;17.00;;;;;16.30;93865.00;;;;7391896;19;20211;-81
2023/06/30 09:30:33;;;;;;;24.63;17.02;;;;;16.50;93859.00;;;;7391031;19;20152;-88
2023/06/30 09:33:02;;;;;;;24.63;17.65;;;;;16.80;93847.00;;;;7390723;19;20143;-85
2023/06/30 09:35:38;;;;;;;27.02;18.42;;;;;17.00;93855.00;;;;7391257;19;20145;-84
2023/06/30 09:38:14;;;;;;;28.08;18.00;;;;;16.90;93859.00;;;;7390596;19;20478;-77
2023/06/30 09:40:49;;;;;;;24.52;16.88;;;;;16.90;93854.00;;;;7391089;19;20510;-85
2023/06/30 09:43:21;;;;;;;25.50;17.67;;;;;17.00;93857.00;;;;7390543;19;20145;-83
2023/06/30 09:45:59;;;;;;;23.65;17.80;;;;;17.00;93857.00;;;;7389611;19;20168;-81
2023/06/30 09:48:29;;;;;;;25.90;17.35;;;;;17.10;93860.00;;;;7390144;19;20204;-82
2023/06/30 09:51:06;;;;;;;25.23;17.55;;;;;17.00;93857.00;;;;7392978;19;20630;-82
2023/06/30 09:53:39;;;;;;;25.45;17.95;;;;;17.00;93866.00;;;;7391968;19;20204;-77
2023/06/30 09:56:21;;;;;;;26.30;17.40;;;;;16.90;93866.00;;;;7388322;19;20490;-76
2023/06/30 09:58:55;;;;;;;24.90;18.08;;;;;16.60;93863.00;;;;7388188;19;20649;-75
2023/06/30 10:01:31;;;;;;;27.15;18.67;;;;;16.80;93852.00;;;;7387160;19;20208;-76
2023/06/30 10:04:12;;;;;;;31.67;18.33;;;;;16.90;93855.00;;;;7387492;19;20224;-76
2023/06/30 10:06:41;;;;;;;25.77;18.58;;;;;17.30;93868.00;;;;7385677;19;20148;-77
2023/06/30 10:09:19;;;;;;;26.58;18.38;;;;;17.10;93867.00;;;;7386748;19;20204;-76
2023/06/30 10:11:55;;;;;;;25.65;17.30;;;;;17.00;93868.00;;;;7384550;19;20144;-77
2023/06/30 10:14:31;;;;;;;25.48;18.17;;;;;16.90;93862.00;;;;7387080;19;20129;-79
2023/06/30 10:17:07;;;;;;;24.75;18.48;;;;;16.80;93868.00;;;;7388659;19;20139;-76
2023/06/30 10:19:38;;;;;;;24.08;17.77;;;;;16.90;93875.00;;;;7389622;19;20490;-81
2023/06/30 10:22:12;;;;;;;25.27;17.10;;;;;16.90;93872.00;;;;7388879;19;20129;-79
2023/06/30 10:24:43;;;;;;;24.40;17.45;;;;;16.80;93881.00;;;;7387413;19;20160;-77
2023/06/30 10:27:21;;;;;;;25.38;17.58;;;;;16.70;93880.00;;;;7387705;19;20598;-77
2023/06/30 10:29:56;;;;;;;29.63;18.63;;;;;16.70;93891.00;;;;7388056;19;20203;-77
2023/06/30 10:32:31;;;;;;;27.33;18.77;;;;;16.60;93885.00;;;;7386332;19;20156;-79
2023/06/30 10:34:59;;;;;;;24.77;17.70;;;;;16.60;93882.00;;;;7386720;19;20604;-77
2023/06/30 10:37:34;;;;;;;26.42;18.80;;;;;16.80;93879.00;;;;7385305;19;20156;-78
2023/06/30 10:40:29;;;;;;;28.23;19.63;;;;;16.70;93869.00;;;;7385482;19;20613;-79
2023/06/30 10:43:06;;;;;;;26.52;19.08;;;;;16.80;93883.00;;;;7386304;19;20465;-79
2023/06/30 10:46:03;;;;;;;28.23;19.40;;;;;17.20;93880.00;;;;7387343;19;20149;-77
2023/06/30 10:48:40;;;;;;;30.65;19.95;;;;;17.40;93881.00;;;;7386441;19;20170;-77
2023/06/30 10:51:14;;;;;;;31.27;19.90;;;;;16.90;93884.00;;;;7387060;19;20159;-75
2023/06/30 10:53:45;;;;;;;33.90;19.80;;;;;17.00;93889.00;;;;7384600;19;20148;-77
2023/06/30 10:56:23;;;;;;;28.88;18.67;;;;;17.00;93873.00;;;;7385688;19;20938;-77
2023/06/30 10:58:51;;;;;;;27.83;19.70;;;;;17.10;93882.00;;;;7385486;19;20636;-77
2023/06/30 11:01:27;;;;;;;25.75;19.48;;;;;16.90;93879.00;;;;7384700;19;20148;-77
2023/06/30 11:04:11;;;;;;;28.95;19.40;;;;;16.90;93882.00;;;;7381796;19;20193;-76
2023/06/30 11:07:07;;;;;;;26.77;18.70;;;;;16.90;93891.00;;;;7385191;19;20172;-77
2023/06/30 11:09:48;;;;;;;30.92;20.40;;;;;16.80;93891.00;;;;7384442;19;20636;-77
2023/06/30 11:12:28;;;;;;;28.20;18.92;;;;;17.00;93883.00;;;;7385421;19;20159;-77
2023/06/30 11:15:03;;;;;;;31.98;20.95;;;;;17.10;93871.00;;;;7388191;19;20196;-76
2023/06/30 11:17:56;;;;;;;27.95;20.00;;;;;17.20;93877.00;;;;7385254;19;20143;-76
2023/06/30 11:20:33;;;;;;;28.15;18.92;;;;;17.60;93839.00;;;;7385564;19;20156;-78
2023/06/30 11:23:05;;;;;;;29.63;19.85;;;;;17.70;93864.00;;;;7387667;19;20583;-78
2023/06/30 11:25:41;;;;;;;26.52;19.15;;;;;17.40;93851.00;;;;7387169;19;20472;-78
2023/06/30 11:28:12;;;;;;;26.25;19.65;;;;;17.90;93850.00;;;;7387710;19;20632;-78
2023/06/30 11:30:46;;;;;;;25.65;18.23;;;;;18.10;93861.00;;;;7387485;19;20152;-79
2023/06/30 11:33:18;;;;;;;25.38;17.92;;;;;18.00;93850.00;;;;7393132;19;20589;-82
2023/06/30 11:35:53;;;;;;;26.92;17.92;;;;;18.60;93843.00;;;;7388652;19;20175;-83
2023/06/30 11:38:20;;;;;;;26.85;19.02;;;;;18.80;93846.00;;;;7389054;19;20136;-82
2023/06/30 11:41:00;;;;;;;27.63;17.48;;;;;18.90;93831.00;;;;7389362;19;20141;-82
2023/06/30 11:43:32;;;;;;;23.45;17.70;;;;;19.40;93843.00;;;;7392595;19;20132;-80
2023/06/30 11:46:08;;;;;;;24.33;18.17;;;;;19.00;93837.00;;;;7395996;19;20141;-81
2023/06/30 11:48:39;;;;;;;24.65;18.05;;;;;19.20;93836.00;;;;7389106;19;20152;-82
2023/06/30 11:51:17;;;;;;;24.60;17.98;;;;;19.30;93841.00;;;;7393250;19;20154;-80
2023/06/30 11:53:51;;;;;;;21.55;17.60;;;;;19.30;93832.00;;;;7390744;19;20155;-79
2023/06/30 11:56:29;;;;;;;22.90;16.95;;;;;19.20;93831.00;;;;7387639;19;20246;-83
2023/06/30 11:59:05;;;;;;;25.60;19.17;;;;;19.60;93812.00;;;;7384014;19;20276;-79
2023/06/30 12:01:40;;;;;;;24.85;17.70;;;;;20.30;93815.00;;;;7389017;19;20152;-78
2023/06/30 12:04:26;;;;;;;25.67;17.70;;;;;20.40;93820.00;;;;7384305;19;21909;-78
2023/06/30 12:07:09;;;;;;;25.23;16.23;;;;;20.30;93827.00;;;;7381191;19;20153;-76
2023/06/30 12:09:40;;;;;;;23.75;16.33;;;;;20.50;93825.00;;;;7381365;19;20624;-77
2023/06/30 12:12:26;;;;;;;25.05;17.33;;;;;20.40;93829.00;;;;7382645;19;20158;-77
2023/06/30 12:15:04;;;;;;;25.23;17.55;;;;;20.00;93840.00;;;;7381981;19;20137;-79
2023/06/30 12:17:42;;;;;;;24.85;19.13;;;;;18.90;93834.00;;;;7385083;19;20146;-78
2023/06/30 12:20:29;;;;;;;27.63;17.73;;;;;19.50;93837.00;;;;7386147;19;20133;-77
2023/06/30 12:23:04;;;;;;;26.65;18.63;;;;;20.40;93827.00;;;;7383865;19;20609;-77
2023/06/30 12:25:40;;;;;;;25.55;18.98;;;;;20.90;93833.00;;;;7385081;19;20512;-77
2023/06/30 12:28:16;;;;;;;24.95;18.70;;;;;19.90;93847.00;;;;7384204;19;20596;-76
2023/06/30 12:30:44;;;;;;;26.77;18.60;;;;;19.30;93842.00;;;;7382808;19;20183;-76
2023/06/30 12:33:22;;;;;;;26.10;18.05;;;;;20.80;93839.00;;;;7382043;19;20133;-76
2023/06/30 12:35:55;;;;;;;26.33;18.23;;;;;20.80;93835.00;;;;7386612;19;20141;-76
2023/06/30 12:38:28;;;;;;;25.45;18.52;;;;;20.50;93826.00;;;;7388717;19;20208;-75
2023/06/30 12:40:56;;;;;;;25.38;18.35;;;;;21.80;93818.00;;;;7387668;19;20140;-75
2023/06/30 12:43:32;;;;;;;24.13;19.23;;;;;21.20;93824.00;;;;7390326;19;20161;-77
2023/06/30 12:46:06;;;;;;;22.42;18.27;;;;;22.50;93816.00;;;;7389597;19;20565;-78